Time;durP1;ratioP1;P1;durP2;ratioP2;P2;SDS_P1;SDS_P2;PMS_P1;PMS_P2;Temp;Humidity;BMP_temperature;BMP_pressure;BME280_temperature;BME280_humidity;BME280_pressure;Samples;Min_cycle;Max_cycle;Signal;HPM_P1;HPM_P2
2021/12/10 00:00:50;;;;;;;37.22;23.83;;;5.10;99.90;;;;;;4993842;28;20034;-71
2021/12/10 00:03:26;;;;;;;34.88;22.58;;;5.10;99.90;;;;;;4993852;28;20042;-71
2021/12/10 00:05:57;;;;;;;32.22;21.85;;;5.10;99.90;;;;;;4993758;28;20049;-71
2021/12/10 00:08:25;;;;;;;37.22;22.75;;;5.10;99.90;;;;;;4993690;28;20038;-71
2021/12/10 00:10:55;;;;;;;35.08;21.75;;;5.10;99.90;;;;;;4993690;28;20089;-71
2021/12/10 00:13:21;;;;;;;32.35;21.17;;;5.10;99.90;;;;;;4993636;28;20047;-71
2021/12/10 00:15:47;;;;;;;36.97;20.80;;;5.10;99.90;;;;;;4977346;28;20538;-71
2021/12/10 00:18:17;;;;;;;34.15;21.55;;;5.10;99.90;;;;;;4977262;28;20073;-71
2021/12/10 00:20:44;;;;;;;31.00;22.45;;;5.10;99.90;;;;;;4993402;28;20065;-71
2021/12/10 00:23:14;;;;;;;35.17;20.92;;;5.10;99.90;;;;;;4977074;28;20038;-71
2021/12/10 00:25:47;;;;;;;29.40;20.52;;;5.10;99.90;;;;;;4993307;28;20528;-71
2021/12/10 00:28:31;;;;;;;33.60;21.23;;;5.20;99.90;;;;;;4993559;28;20491;-71
2021/12/10 00:31:19;;;;;;;37.45;21.30;;;5.10;99.90;;;;;;4993103;28;20100;-71
2021/12/10 00:33:59;;;;;;;31.40;20.65;;;5.20;99.90;;;;;;4993599;28;20049;-71
2021/12/10 00:36:25;;;;;;;38.90;21.80;;;5.10;99.90;;;;;;4976969;28;20058;-71
2021/12/10 00:38:51;;;;;;;35.78;21.60;;;5.10;99.90;;;;;;4992963;28;20430;-71
2021/12/10 00:41:19;;;;;;;37.40;21.13;;;5.10;99.90;;;;;;4993213;28;20128;-71
2021/12/10 00:43:45;;;;;;;36.17;21.83;;;5.10;99.90;;;;;;4993006;28;20042;-71
2021/12/10 00:46:11;;;;;;;32.63;19.35;;;5.10;99.90;;;;;;4992964;28;20038;-71
2021/12/10 00:48:37;;;;;;;33.25;19.27;;;5.10;99.90;;;;;;4976723;28;20189;-71
2021/12/10 00:51:06;;;;;;;29.98;17.95;;;5.10;99.90;;;;;;4993011;28;20128;-71
2021/12/10 00:53:33;;;;;;;34.47;19.10;;;5.10;99.90;;;;;;4992776;28;20046;-71
2021/12/10 00:55:58;;;;;;;36.60;20.15;;;5.10;99.90;;;;;;4993129;28;20089;-71
2021/12/10 00:58:25;;;;;;;35.33;20.35;;;5.10;99.90;;;;;;4993024;28;20070;-71
2021/12/10 01:00:56;;;;;;;31.73;16.10;;;5.10;99.90;;;;;;4993001;28;20041;-71
2021/12/10 01:03:31;;;;;;;32.85;16.75;;;5.10;99.90;;;;;;4992681;28;20071;-71
2021/12/10 01:06:01;;;;;;;30.75;17.55;;;5.10;99.90;;;;;;4992750;28;20050;-71
2021/12/10 01:08:27;;;;;;;33.92;16.45;;;5.00;99.90;;;;;;4993032;28;20502;-71
2021/12/10 01:11:10;;;;;;;30.85;17.95;;;5.00;99.90;;;;;;4976705;28;20038;-71
2021/12/10 01:13:38;;;;;;;33.42;16.95;;;5.00;99.90;;;;;;4992688;28;20042;-71
2021/12/10 01:27:28;;;;;;;29.90;13.45;;;5.00;99.90;;;;;;4999233;28;20414;-71
2021/12/10 01:29:57;;;;;;;20.05;13.07;;;5.00;99.90;;;;;;4983064;28;20038;-71
2021/12/10 01:32:26;;;;;;;23.45;14.27;;;5.00;99.90;;;;;;4982503;28;20412;-71
2021/12/10 01:34:52;;;;;;;27.25;13.15;;;5.00;99.90;;;;;;4999218;28;20414;-71
2021/12/10 01:37:18;;;;;;;28.63;14.55;;;4.90;99.90;;;;;;4999184;28;20050;-71
2021/12/10 01:39:44;;;;;;;26.75;14.13;;;4.90;99.90;;;;;;4998930;28;20401;-71
2021/12/10 01:44:56;;;;;;;22.45;14.88;;;4.90;99.90;;;;;;4999189;28;20544;-71
2021/12/10 01:47:33;;;;;;;26.20;15.23;;;4.90;99.90;;;;;;4982710;28;20042;-71
2021/12/10 01:49:59;;;;;;;27.60;13.18;;;4.90;99.90;;;;;;4982825;28;20046;-71
2021/12/10 01:52:26;;;;;;;27.25;12.93;;;4.90;99.90;;;;;;4982562;28;20132;-71
2021/12/10 01:54:55;;;;;;;24.98;12.60;;;4.90;99.90;;;;;;4998831;28;20505;-71
2021/12/10 01:57:24;;;;;;;26.63;12.68;;;4.90;99.90;;;;;;4998929;28;20037;-71
2021/12/10 01:59:50;;;;;;;23.05;11.95;;;4.90;99.90;;;;;;4982510;28;20042;-71
2021/12/10 02:02:20;;;;;;;22.08;12.05;;;4.90;99.90;;;;;;4998619;28;20100;-71
2021/12/10 02:04:47;;;;;;;28.25;13.48;;;4.90;99.90;;;;;;4998983;28;20137;-71
2021/12/10 02:07:17;;;;;;;24.63;12.10;;;4.90;99.90;;;;;;4999813;28;20046;-72
2021/12/10 02:09:43;;;;;;;25.58;11.82;;;4.90;99.90;;;;;;4998725;28;20046;-71
2021/12/10 02:12:09;;;;;;;25.05;12.70;;;4.90;99.90;;;;;;4998363;28;20077;-71
2021/12/10 02:14:34;;;;;;;29.42;12.68;;;5.00;99.90;;;;;;4998853;28;20077;-71
2021/12/10 02:17:00;;;;;;;31.95;13.57;;;4.90;99.90;;;;;;4998876;28;20493;-71
2021/12/10 02:19:28;;;;;;;20.65;11.93;;;4.90;99.90;;;;;;4998605;28;20035;-71
2021/12/10 02:21:54;;;;;;;30.90;14.27;;;4.90;99.90;;;;;;4998562;28;20081;-71
2021/12/10 02:24:20;;;;;;;24.35;13.43;;;4.90;99.90;;;;;;4998538;28;20560;-71
2021/12/10 02:27:01;;;;;;;21.63;12.98;;;4.90;99.90;;;;;;4982269;28;20042;-71
2021/12/10 02:29:33;;;;;;;29.25;13.43;;;4.90;99.90;;;;;;4979675;28;20050;-71
2021/12/10 02:31:59;;;;;;;26.67;13.90;;;4.90;99.90;;;;;;4979300;28;20038;-71
2021/12/10 02:34:26;;;;;;;20.42;12.48;;;4.80;99.90;;;;;;4995344;28;20051;-71
2021/12/10 02:36:52;;;;;;;33.15;14.70;;;4.80;99.90;;;;;;4979126;28;20049;-71
2021/12/10 02:39:21;;;;;;;24.08;14.15;;;4.80;99.90;;;;;;4995533;28;20034;-71
2021/12/10 02:41:48;;;;;;;23.17;13.75;;;4.80;99.90;;;;;;4995499;28;20046;-71
2021/12/10 02:44:19;;;;;;;26.75;14.25;;;4.90;99.90;;;;;;4995159;28;20042;-71
2021/12/10 02:46:45;;;;;;;26.67;13.80;;;4.80;99.90;;;;;;4978918;28;20043;-71
2021/12/10 02:49:12;;;;;;;28.98;13.70;;;4.80;99.90;;;;;;4995142;28;20038;-71
2021/12/10 02:51:37;;;;;;;23.75;13.00;;;4.80;99.90;;;;;;4994936;28;20046;-71
2021/12/10 02:54:06;;;;;;;22.95;12.85;;;4.80;99.90;;;;;;4995328;28;20098;-71
2021/12/10 02:56:32;;;;;;;21.92;11.98;;;4.80;99.90;;;;;;4994938;28;20406;-71
2021/12/10 02:58:59;;;;;;;23.48;12.70;;;4.80;99.90;;;;;;4978649;28;20493;-71
2021/12/10 03:01:32;;;;;;;24.73;12.13;;;4.80;99.90;;;;;;4979180;28;20050;-71
2021/12/10 03:03:59;;;;;;;21.58;11.88;;;4.80;99.90;;;;;;4994911;28;20048;-71
2021/12/10 03:06:26;;;;;;;25.20;12.13;;;4.80;99.90;;;;;;4995853;28;20148;-71
2021/12/10 03:08:53;;;;;;;32.83;12.07;;;4.80;99.90;;;;;;4994836;28;20125;-71
2021/12/10 03:11:22;;;;;;;24.08;11.75;;;4.80;99.90;;;;;;4978234;28;20074;-71
2021/12/10 03:13:48;;;;;;;24.75;12.23;;;4.80;99.90;;;;;;4994680;28;20125;-71
2021/12/10 03:16:15;;;;;;;23.65;13.73;;;4.80;99.90;;;;;;4978592;28;20077;-71
2021/12/10 03:18:43;;;;;;;26.83;13.90;;;4.80;99.90;;;;;;4994793;28;20030;-71
2021/12/10 03:21:11;;;;;;;22.88;13.18;;;4.80;99.90;;;;;;4994416;28;20092;-71
2021/12/10 03:23:43;;;;;;;22.88;12.77;;;4.70;99.90;;;;;;4994694;28;20050;-71
2021/12/10 03:26:11;;;;;;;26.48;14.40;;;4.70;99.90;;;;;;4994497;28;20042;-71
2021/12/10 03:28:42;;;;;;;23.73;14.40;;;4.70;99.90;;;;;;4994610;28;20038;-71
2021/12/10 03:31:09;;;;;;;20.48;13.93;;;4.70;99.90;;;;;;4977997;28;20092;-71
2021/12/10 03:33:36;;;;;;;31.38;14.52;;;4.70;99.90;;;;;;4994522;28;20058;-71
2021/12/10 03:36:03;;;;;;;22.75;14.82;;;4.70;99.90;;;;;;4994458;28;20430;-71
2021/12/10 03:38:29;;;;;;;25.10;15.40;;;4.60;99.90;;;;;;4978222;28;20050;-71
2021/12/10 03:40:55;;;;;;;26.65;16.63;;;4.60;99.90;;;;;;4977749;28;20042;-71
2021/12/10 03:43:22;;;;;;;24.83;14.05;;;4.60;99.90;;;;;;4994137;28;20038;-71
2021/12/10 03:45:52;;;;;;;22.80;14.48;;;4.60;99.90;;;;;;4994263;28;20085;-71
2021/12/10 03:48:22;;;;;;;20.33;13.73;;;4.60;99.90;;;;;;4994091;28;20045;-71
2021/12/10 03:50:49;;;;;;;22.08;13.75;;;4.60;99.90;;;;;;4993984;28;20125;-71
2021/12/10 03:53:16;;;;;;;24.02;13.77;;;4.60;99.90;;;;;;4993822;28;20053;-71
2021/12/10 03:55:43;;;;;;;21.15;13.98;;;4.60;99.90;;;;;;4993880;28;20042;-71
2021/12/10 03:58:09;;;;;;;23.20;13.65;;;4.60;99.90;;;;;;4994043;28;20038;-71
2021/12/10 04:00:43;;;;;;;25.30;13.00;;;4.60;99.90;;;;;;4994049;28;20437;-71
2021/12/10 04:03:10;;;;;;;18.58;12.40;;;4.60;99.90;;;;;;4993798;28;20466;-71
2021/12/10 04:05:36;;;;;;;21.73;13.05;;;4.60;99.90;;;;;;4977523;28;20097;-71
2021/12/10 04:08:03;;;;;;;18.73;12.93;;;4.60;99.90;;;;;;4993922;28;20046;-71
2021/12/10 04:10:28;;;;;;;18.00;13.10;;;4.60;99.90;;;;;;4993514;28;20046;-71
2021/12/10 04:12:55;;;;;;;21.70;13.60;;;4.50;99.90;;;;;;5020731;23;20049;-74
2021/12/10 04:15:22;;;;;;;19.92;13.57;;;4.50;99.90;;;;;;4980478;28;20176;-74
2021/12/10 04:17:52;;;;;;;27.13;15.23;;;4.40;99.90;;;;;;4996604;28;20566;-74
2021/12/10 04:20:19;;;;;;;21.48;14.43;;;4.40;99.90;;;;;;4996625;28;20041;-74
2021/12/10 04:22:46;;;;;;;26.77;15.27;;;4.40;99.90;;;;;;5012812;28;20038;-74
2021/12/10 04:25:15;;;;;;;25.98;14.95;;;4.30;99.90;;;;;;4996777;28;20041;-74
2021/12/10 04:27:42;;;;;;;19.35;14.43;;;4.30;99.90;;;;;;4996393;28;20516;-74
2021/12/10 04:30:10;;;;;;;21.35;15.35;;;4.30;99.90;;;;;;4996459;28;20084;-74
2021/12/10 04:32:36;;;;;;;24.00;14.18;;;4.30;99.90;;;;;;4996244;28;20088;-74
2021/12/10 04:35:02;;;;;;;23.90;15.27;;;4.20;99.90;;;;;;4980149;28;20046;-73
2021/12/10 04:37:28;;;;;;;24.15;15.82;;;4.20;99.90;;;;;;4997084;28;20033;-74
2021/12/10 04:39:54;;;;;;;23.55;15.40;;;4.20;99.90;;;;;;4996441;28;20531;-73
2021/12/10 04:42:23;;;;;;;21.40;13.98;;;4.20;99.90;;;;;;4979936;28;20038;-73
2021/12/10 04:44:53;;;;;;;21.27;14.65;;;4.20;99.90;;;;;;4996425;28;20053;-73
2021/12/10 04:47:19;;;;;;;21.02;13.80;;;4.20;99.90;;;;;;4996275;28;20597;-73
2021/12/10 04:49:45;;;;;;;23.67;15.80;;;4.10;99.90;;;;;;4996126;28;20041;-74
2021/12/10 04:52:11;;;;;;;19.83;14.52;;;4.10;99.90;;;;;;4995309;28;20089;-74
2021/12/10 04:54:37;;;;;;;23.58;15.52;;;4.10;99.90;;;;;;4996031;28;20053;-73
2021/12/10 04:57:04;;;;;;;19.42;14.60;;;4.00;99.90;;;;;;4995962;28;20052;-73
2021/12/10 04:59:32;;;;;;;22.98;15.10;;;4.00;99.90;;;;;;4996169;28;20410;-73
2021/12/10 05:02:00;;;;;;;24.48;16.52;;;4.00;99.90;;;;;;4995932;28;20115;-74
2021/12/10 05:04:27;;;;;;;21.17;14.68;;;4.00;99.90;;;;;;4996180;28;20084;-73
2021/12/10 05:06:54;;;;;;;26.70;15.45;;;4.00;99.90;;;;;;4996145;28;20057;-73
2021/12/10 05:09:21;;;;;;;24.52;15.77;;;4.00;99.90;;;;;;4995905;28;20042;-73
2021/12/10 05:11:48;;;;;;;21.45;15.63;;;3.90;99.90;;;;;;4979405;28;20042;-73
2021/12/10 05:14:15;;;;;;;22.65;14.63;;;3.90;99.90;;;;;;4979888;28;20116;-74
2021/12/10 05:16:44;;;;;;;22.98;15.93;;;3.90;99.90;;;;;;4995788;28;20457;-73
2021/12/10 05:19:13;;;;;;;23.52;15.52;;;3.90;99.90;;;;;;4995984;28;20112;-73
2021/12/10 05:21:40;;;;;;;22.05;16.25;;;3.90;99.90;;;;;;4995844;28;20041;-73
2021/12/10 05:24:07;;;;;;;21.70;15.52;;;3.90;99.90;;;;;;4995708;28;20556;-73
2021/12/10 05:26:35;;;;;;;21.70;16.20;;;3.80;99.90;;;;;;4979417;28;20050;-73
2021/12/10 05:29:02;;;;;;;23.55;17.20;;;3.80;99.90;;;;;;4995696;28;20038;-73
2021/12/10 05:31:28;;;;;;;20.75;15.65;;;3.80;99.90;;;;;;4995464;28;20030;-73
2021/12/10 05:33:53;;;;;;;22.77;16.27;;;3.80;99.90;;;;;;4979659;28;20038;-73
2021/12/10 05:36:19;;;;;;;23.75;16.95;;;3.80;99.90;;;;;;4995582;28;20540;-73
2021/12/10 05:38:45;;;;;;;22.80;16.90;;;3.70;99.90;;;;;;4995801;28;20034;-73
2021/12/10 05:41:12;;;;;;;22.58;16.25;;;3.70;99.90;;;;;;4995481;28;20038;-73
2021/12/10 05:43:42;;;;;;;21.95;17.05;;;3.70;99.90;;;;;;4979407;28;20046;-73
2021/12/10 05:46:09;;;;;;;22.05;16.48;;;3.70;99.90;;;;;;4995585;28;20517;-73
2021/12/10 05:48:35;;;;;;;23.33;15.65;;;3.60;99.90;;;;;;4995463;28;20053;-73
2021/12/10 05:51:02;;;;;;;20.05;15.80;;;3.60;99.90;;;;;;4979203;28;20038;-73
2021/12/10 05:53:28;;;;;;;21.73;16.13;;;3.60;99.90;;;;;;4995627;28;20046;-73
2021/12/10 05:55:54;;;;;;;19.75;15.18;;;3.50;99.90;;;;;;4995697;28;20387;-73
2021/12/10 05:58:21;;;;;;;20.05;14.98;;;3.50;99.90;;;;;;4995377;28;20068;-73
2021/12/10 06:00:51;;;;;;;21.13;14.95;;;3.50;99.90;;;;;;4995358;28;20037;-73
2021/12/10 06:03:17;;;;;;;17.85;13.50;;;3.40;99.90;;;;;;4995564;28;20054;-73
2021/12/10 06:05:44;;;;;;;18.20;13.57;;;3.40;99.90;;;;;;4999142;28;20134;-73
2021/12/10 06:08:11;;;;;;;18.27;13.60;;;3.40;99.90;;;;;;5015649;28;20049;-73
2021/12/10 06:10:39;;;;;;;19.15;14.00;;;3.30;99.90;;;;;;4982773;28;20046;-73
2021/12/10 06:13:05;;;;;;;17.00;12.88;;;3.30;99.90;;;;;;4982520;28;20045;-73
2021/12/10 06:15:31;;;;;;;20.17;13.20;;;3.30;99.90;;;;;;4998924;28;20124;-73
2021/12/10 06:17:57;;;;;;;16.23;12.55;;;3.30;99.90;;;;;;4999116;28;20041;-73
2021/12/10 06:20:27;;;;;;;16.75;13.10;;;3.30;99.90;;;;;;4999020;28;20050;-73
2021/12/10 06:22:53;;;;;;;18.20;12.85;;;3.20;99.90;;;;;;4998711;28;20041;-73
2021/12/10 06:25:19;;;;;;;18.98;12.60;;;3.20;99.90;;;;;;4998692;28;20042;-73
2021/12/10 06:27:45;;;;;;;17.05;12.65;;;3.20;99.90;;;;;;4998982;28;20120;-73
2021/12/10 06:30:18;;;;;;;18.70;11.65;;;3.10;99.90;;;;;;4998611;28;20470;-73
2021/12/10 06:32:45;;;;;;;14.75;11.35;;;3.10;99.90;;;;;;4982260;28;20038;-73
2021/12/10 06:35:12;;;;;;;17.23;11.43;;;3.10;99.90;;;;;;4982259;28;20057;-73
2021/12/10 06:37:39;;;;;;;15.55;10.57;;;3.10;99.90;;;;;;4998764;28;20034;-73
2021/12/10 06:40:08;;;;;;;12.90;10.05;;;3.10;99.90;;;;;;4998472;28;20048;-73
2021/12/10 06:42:35;;;;;;;20.02;11.68;;;3.10;99.90;;;;;;4998287;28;20099;-73
2021/12/10 06:45:04;;;;;;;16.60;11.45;;;3.00;99.90;;;;;;4998355;28;20113;-73
2021/12/10 06:47:30;;;;;;;14.32;10.88;;;3.00;99.90;;;;;;4982455;28;20406;-73
2021/12/10 06:49:56;;;;;;;17.48;11.98;;;3.00;99.90;;;;;;4998268;28;20092;-73
2021/12/10 06:52:21;;;;;;;15.68;11.90;;;3.00;99.90;;;;;;4998019;28;20070;-73
2021/12/10 06:54:47;;;;;;;14.02;10.55;;;3.00;99.90;;;;;;4998189;28;20038;-74
2021/12/10 06:57:13;;;;;;;16.50;10.95;;;2.90;99.90;;;;;;4998170;28;20100;-72
2021/12/10 06:59:38;;;;;;;12.55;10.77;;;2.90;99.90;;;;;;4998132;28;20079;-73
2021/12/10 07:02:04;;;;;;;17.40;11.23;;;2.90;99.90;;;;;;4998045;28;20124;-73
2021/12/10 07:04:30;;;;;;;13.30;9.68;;;2.90;99.90;;;;;;4997969;28;20038;-73
2021/12/10 07:06:55;;;;;;;15.45;11.00;;;2.90;99.90;;;;;;4981759;28;20045;-73
2021/12/10 07:09:23;;;;;;;16.40;10.65;;;2.90;99.90;;;;;;4998743;28;20104;-73
2021/12/10 07:11:52;;;;;;;14.68;10.65;;;2.90;99.90;;;;;;4997553;28;20037;-73
2021/12/10 07:14:18;;;;;;;13.18;9.80;;;2.80;99.90;;;;;;4997900;28;20046;-73
2021/12/10 07:16:45;;;;;;;15.32;10.75;;;2.80;99.90;;;;;;4980928;28;20124;-73
2021/12/10 07:19:11;;;;;;;16.50;9.85;;;2.80;99.90;;;;;;4997903;28;20132;-73
2021/12/10 07:21:37;;;;;;;13.93;10.07;;;2.80;99.90;;;;;;4997569;28;20042;-73
2021/12/10 07:24:07;;;;;;;12.80;9.68;;;2.80;99.90;;;;;;4997629;28;20052;-74
2021/12/10 07:26:34;;;;;;;13.23;9.20;;;2.80;99.90;;;;;;4997542;28;20044;-73
2021/12/10 07:29:00;;;;;;;13.57;9.55;;;2.80;99.90;;;;;;4981355;28;20041;-73
2021/12/10 07:31:26;;;;;;;13.85;9.85;;;2.80;99.90;;;;;;4997543;28;20073;-73
2021/12/10 07:33:54;;;;;;;18.05;11.55;;;2.80;99.90;;;;;;4997448;28;20069;-74
2021/12/10 07:36:21;;;;;;;17.55;10.60;;;2.80;99.90;;;;;;4997373;28;20117;-73
2021/12/10 07:38:48;;;;;;;21.70;10.57;;;2.70;99.90;;;;;;4981130;28;20037;-73
2021/12/10 07:41:14;;;;;;;15.00;9.85;;;2.70;99.90;;;;;;4997233;28;20045;-74
2021/12/10 07:43:40;;;;;;;12.38;8.70;;;2.70;99.90;;;;;;4997305;28;20053;-74
2021/12/10 07:46:06;;;;;;;15.20;9.00;;;2.80;99.90;;;;;;4997215;28;20038;-73
2021/12/10 07:48:34;;;;;;;14.20;8.55;;;2.70;99.90;;;;;;4997217;28;20034;-73
2021/12/10 07:51:09;;;;;;;12.50;8.90;;;2.70;99.90;;;;;;4980826;28;20387;-73
2021/12/10 07:53:35;;;;;;;13.15;8.38;;;2.80;99.90;;;;;;4997050;28;20089;-73
2021/12/10 07:56:05;;;;;;;13.35;7.95;;;2.80;99.90;;;;;;4998125;28;20092;-73
2021/12/10 07:58:31;;;;;;;11.10;8.07;;;2.70;99.90;;;;;;4981076;28;20491;-73
2021/12/10 08:00:58;;;;;;;13.25;8.10;;;2.80;99.90;;;;;;4996971;28;20038;-73
2021/12/10 08:03:24;;;;;;;11.48;7.28;;;2.80;99.90;;;;;;4996761;28;20053;-73
2021/12/10 08:05:51;;;;;;;13.48;7.93;;;2.80;99.90;;;;;;4996855;28;20048;-73
2021/12/10 08:08:18;;;;;;;9.27;7.53;;;2.80;99.90;;;;;;4996801;28;20053;-73
2021/12/10 08:10:46;;;;;;;15.70;8.23;;;2.80;99.90;;;;;;4996727;28;20049;-73
2021/12/10 08:13:13;;;;;;;11.50;7.22;;;2.80;99.90;;;;;;4980323;28;20509;-73
2021/12/10 08:15:38;;;;;;;15.80;7.82;;;2.80;99.90;;;;;;4996939;28;20077;-73
2021/12/10 08:18:05;;;;;;;14.35;7.47;;;2.90;99.90;;;;;;4996912;28;20505;-73
2021/12/10 08:20:31;;;;;;;12.85;7.63;;;2.90;99.90;;;;;;4996574;28;20048;-73
2021/12/10 08:22:58;;;;;;;10.68;8.00;;;2.90;99.90;;;;;;4996796;28;20046;-73
2021/12/10 08:25:25;;;;;;;15.05;7.90;;;2.90;99.90;;;;;;4996529;28;20046;-73
2021/12/10 08:27:51;;;;;;;13.05;7.63;;;2.90;99.90;;;;;;4995585;28;20045;-73
2021/12/10 08:30:21;;;;;;;10.80;7.80;;;3.00;99.90;;;;;;4980316;28;20103;-72
2021/12/10 08:32:47;;;;;;;9.80;7.20;;;3.00;99.90;;;;;;4996232;28;20049;-73
2021/12/10 08:35:17;;;;;;;12.18;6.90;;;3.00;99.90;;;;;;4996356;28;20046;-73
2021/12/10 08:37:43;;;;;;;13.10;7.57;;;3.00;99.90;;;;;;4996566;28;20046;-73
2021/12/10 08:40:12;;;;;;;9.80;7.30;;;3.00;99.90;;;;;;4996277;28;20452;-73
2021/12/10 08:42:38;;;;;;;14.90;7.38;;;3.00;99.90;;;;;;4996042;28;20379;-73
2021/12/10 08:45:05;;;;;;;11.95;6.85;;;3.00;99.90;;;;;;4996372;28;20099;-73
2021/12/10 08:47:31;;;;;;;10.50;6.80;;;3.00;99.90;;;;;;4996326;28;20050;-73
2021/12/10 08:49:56;;;;;;;11.50;7.30;;;3.10;99.90;;;;;;4996078;28;20049;-73
2021/12/10 08:52:22;;;;;;;11.98;6.80;;;3.10;99.90;;;;;;4995951;28;20041;-73
2021/12/10 08:54:48;;;;;;;9.00;6.78;;;3.10;99.90;;;;;;4996074;28;20042;-73
2021/12/10 08:57:14;;;;;;;11.85;6.68;;;3.10;99.90;;;;;;4996031;28;20038;-73
2021/12/10 08:59:40;;;;;;;11.52;7.72;;;3.10;99.90;;;;;;4995932;28;20042;-73
2021/12/10 09:02:10;;;;;;;10.48;6.53;;;3.20;99.90;;;;;;4995888;28;20092;-73
2021/12/10 09:04:36;;;;;;;11.10;6.95;;;3.20;99.90;;;;;;4995878;28;20038;-73
2021/12/10 09:07:09;;;;;;;10.68;6.80;;;3.20;99.90;;;;;;4995922;28;20045;-73
2021/12/10 09:09:37;;;;;;;9.63;6.82;;;3.30;99.90;;;;;;4995879;28;20046;-72
2021/12/10 09:12:11;;;;;;;15.27;7.05;;;3.30;99.90;;;;;;4995635;28;20122;-73
2021/12/10 09:14:43;;;;;;;13.88;7.30;;;3.30;99.90;;;;;;4980097;28;20399;-73
2021/12/10 09:17:10;;;;;;;11.18;6.60;;;3.30;99.90;;;;;;4995791;28;20046;-73
2021/12/10 09:19:38;;;;;;;11.23;6.65;;;3.30;99.90;;;;;;4979908;28;20033;-73
2021/12/10 09:22:06;;;;;;;11.23;5.97;;;3.40;99.90;;;;;;4996331;28;20041;-73
2021/12/10 09:24:32;;;;;;;8.95;5.90;;;3.40;99.90;;;;;;4995794;28;20037;-73
2021/12/10 09:27:00;;;;;;;10.45;6.38;;;3.40;99.90;;;;;;4995994;28;20041;-73
2021/12/10 09:29:31;;;;;;;12.13;6.07;;;3.50;99.90;;;;;;4995725;28;20428;-74
2021/12/10 09:31:58;;;;;;;8.38;5.82;;;3.50;99.90;;;;;;4995854;28;20042;-74
2021/12/10 09:34:24;;;;;;;10.88;5.88;;;3.60;99.90;;;;;;4995867;28;20038;-74
2021/12/10 09:36:51;;;;;;;9.30;6.05;;;3.60;99.90;;;;;;4979403;28;20471;-73
2021/12/10 09:39:18;;;;;;;10.45;5.90;;;3.60;99.90;;;;;;4997754;28;20049;-73
2021/12/10 09:41:45;;;;;;;9.70;6.40;;;3.70;99.90;;;;;;4999476;28;20504;-73
2021/12/10 09:44:11;;;;;;;11.60;6.13;;;3.80;99.90;;;;;;4999744;28;20053;-73
2021/12/10 09:46:39;;;;;;;11.10;5.78;;;3.80;99.90;;;;;;4999440;28;20391;-73
2021/12/10 09:49:07;;;;;;;11.57;6.18;;;3.90;99.90;;;;;;4999449;28;20152;-73
2021/12/10 09:51:37;;;;;;;7.40;5.43;;;3.90;99.90;;;;;;4983286;28;20034;-73
2021/12/10 09:54:11;;;;;;;9.40;5.30;;;4.00;99.90;;;;;;4999585;28;20053;-73
2021/12/10 09:56:40;;;;;;;10.18;5.57;;;4.10;99.90;;;;;;4999308;28;20038;-73
2021/12/10 09:59:06;;;;;;;8.95;5.13;;;4.10;99.90;;;;;;4999508;28;20497;-73
2021/12/10 10:01:35;;;;;;;8.23;5.40;;;4.20;99.90;;;;;;4999123;28;20077;-73
2021/12/10 10:04:02;;;;;;;8.65;5.45;;;4.20;99.90;;;;;;4999423;28;20041;-73
2021/12/10 10:06:32;;;;;;;7.63;5.05;;;4.30;99.90;;;;;;4999163;28;20042;-73
2021/12/10 10:08:57;;;;;;;8.98;5.32;;;4.30;99.90;;;;;;4999071;28;20042;-73
2021/12/10 10:11:29;;;;;;;8.00;4.97;;;4.30;99.90;;;;;;4982693;28;20053;-73
2021/12/10 10:13:56;;;;;;;12.52;5.22;;;4.30;99.80;;;;;;4999529;28;20048;-73
2021/12/10 10:16:24;;;;;;;8.25;5.35;;;4.40;99.80;;;;;;4998947;28;20046;-73
2021/12/10 10:18:51;;;;;;;11.05;4.80;;;4.50;99.60;;;;;;4982980;28;20052;-73
2021/12/10 10:21:22;;;;;;;13.57;5.03;;;4.50;99.30;;;;;;4998796;28;20566;-73
2021/12/10 10:23:48;;;;;;;9.70;5.18;;;4.50;99.20;;;;;;4999043;28;20042;-73
2021/12/10 10:26:18;;;;;;;9.15;4.68;;;4.60;99.40;;;;;;4998689;28;20565;-73
2021/12/10 10:28:44;;;;;;;8.38;4.75;;;4.60;98.80;;;;;;4983848;28;20132;-73
2021/12/10 10:31:17;;;;;;;9.43;4.30;;;4.70;98.80;;;;;;4982423;28;20049;-73
2021/12/10 10:33:45;;;;;;;9.50;5.05;;;4.70;98.60;;;;;;4998688;28;20046;-73
2021/12/10 10:36:19;;;;;;;8.23;4.70;;;4.80;98.70;;;;;;4998772;28;20088;-73
2021/12/10 10:38:51;;;;;;;7.15;4.55;;;4.90;98.50;;;;;;4999320;28;20042;-73
2021/12/10 10:41:19;;;;;;;12.90;4.47;;;4.90;98.20;;;;;;4998515;28;20125;-73
2021/12/10 10:43:46;;;;;;;7.65;4.30;;;5.00;98.20;;;;;;4998522;28;20061;-72
2021/12/10 10:46:12;;;;;;;11.10;4.35;;;5.00;98.10;;;;;;4982352;28;20046;-72
2021/12/10 10:48:41;;;;;;;9.50;4.00;;;5.10;97.90;;;;;;4998310;28;20038;-72
2021/12/10 10:51:16;;;;;;;6.68;4.10;;;5.20;97.70;;;;;;4997176;28;20049;-73
2021/12/10 10:53:47;;;;;;;7.95;4.65;;;5.30;97.60;;;;;;4998367;28;20049;-73
2021/12/10 10:56:15;;;;;;;8.00;3.97;;;5.40;97.50;;;;;;4998211;28;20041;-73
2021/12/10 10:58:46;;;;;;;9.70;5.20;;;5.50;97.10;;;;;;4998105;28;20042;-73
2021/12/10 11:01:24;;;;;;;8.48;4.82;;;5.50;97.20;;;;;;4998057;28;20044;-73
2021/12/10 11:03:53;;;;;;;6.38;4.20;;;5.60;96.80;;;;;;4998071;28;20391;-73
2021/12/10 11:06:27;;;;;;;6.90;3.92;;;5.70;96.50;;;;;;4998013;28;20398;-73
2021/12/10 11:09:03;;;;;;;8.02;3.72;;;5.80;96.50;;;;;;4997955;28;20096;-73
2021/12/10 11:11:34;;;;;;;7.68;4.03;;;5.90;96.10;;;;;;4997865;28;20513;-73
2021/12/10 11:14:15;;;;;;;9.10;3.70;;;6.00;95.90;;;;;;4998166;28;20034;-73
2021/12/10 11:16:43;;;;;;;6.90;3.63;;;6.40;95.60;;;;;;4997903;28;20038;-73
2021/12/10 11:19:14;;;;;;;7.03;3.42;;;6.90;95.00;;;;;;4981592;28;20045;-73
2021/12/10 11:21:56;;;;;;;6.35;3.50;;;7.70;93.90;;;;;;4997638;28;20046;-73
2021/12/10 11:24:37;;;;;;;7.57;3.22;;;8.50;92.00;;;;;;4997652;28;20520;-73
2021/12/10 11:27:23;;;;;;;6.63;3.20;;;9.10;89.30;;;;;;4997606;28;20391;-73
2021/12/10 11:29:55;;;;;;;7.32;3.30;;;9.40;84.00;;;;;;4997560;28;20120;-73
2021/12/10 11:32:53;;;;;;;5.20;2.80;;;9.90;85.60;;;;;;4997424;28;20036;-73
2021/12/10 11:35:30;;;;;;;8.93;2.90;;;10.50;82.00;;;;;;4961092;28;20061;-73
2021/12/10 11:37:58;;;;;;;7.75;3.30;;;10.70;77.90;;;;;;4997474;28;20038;-72
2021/12/10 11:40:35;;;;;;;6.43;2.97;;;10.50;78.60;;;;;;4997396;28;20052;-72
2021/12/10 11:43:18;;;;;;;6.00;2.83;;;10.40;79.40;;;;;;4997928;28;20486;-73
2021/12/10 11:46:03;;;;;;;5.75;2.75;;;10.30;78.80;;;;;;4997389;28;20041;-72
2021/12/10 11:48:29;;;;;;;6.90;2.85;;;10.50;78.90;;;;;;4997240;28;20045;-72
2021/12/10 11:51:28;;;;;;;5.38;2.35;;;10.40;77.90;;;;;;5013439;28;20168;-72
2021/12/10 11:54:04;;;;;;;5.28;2.40;;;10.30;76.20;;;;;;4984313;28;20054;-73
2021/12/10 11:56:40;;;;;;;6.38;2.72;;;10.30;77.60;;;;;;4997132;28;20033;-73
2021/12/10 11:59:14;;;;;;;9.00;3.30;;;10.40;77.00;;;;;;4981276;28;20033;-73
2021/12/10 12:01:55;;;;;;;6.15;2.60;;;10.50;75.10;;;;;;4996703;28;20046;-74
2021/12/10 12:04:25;;;;;;;5.72;2.80;;;10.70;74.60;;;;;;4980725;28;20066;-73
2021/12/10 12:07:33;;;;;;;8.00;2.97;;;10.90;73.90;;;;;;4997083;28;20136;-73
2021/12/10 12:10:22;;;;;;;6.18;2.90;;;11.40;69.80;;;;;;4996811;28;20060;-73
2021/12/10 12:13:11;;;;;;;7.13;2.80;;;11.50;71.70;;;;;;4996634;28;20186;-73
2021/12/10 12:16:02;;;;;;;6.13;2.45;;;11.40;67.60;;;;;;4996789;28;20038;-73
2021/12/10 12:18:38;;;;;;;5.38;2.17;;;11.00;70.90;;;;;;4983730;28;20100;-73
2021/12/10 12:27:12;;;;;;;9.50;2.92;;;10.50;71.40;;;;;;4996522;28;20132;-72
2021/12/10 12:29:56;;;;;;;6.90;2.40;;;10.70;71.80;;;;;;4996020;28;20046;-73
2021/12/10 12:32:27;;;;;;;5.72;2.70;;;11.30;69.70;;;;;;4996342;28;20041;-73
2021/12/10 12:34:53;;;;;;;7.13;2.60;;;11.70;69.60;;;;;;4996473;28;20049;-73
2021/12/10 12:37:21;;;;;;;6.88;2.05;;;12.00;67.60;;;;;;4996573;28;20141;-73
2021/12/10 12:39:59;;;;;;;7.10;2.58;;;12.30;66.80;;;;;;4996242;28;20134;-71
2021/12/10 12:42:37;;;;;;;7.35;2.22;;;12.70;65.50;;;;;;4996235;28;20041;-72
2021/12/10 12:45:10;;;;;;;12.23;2.08;;;12.80;64.30;;;;;;4996556;28;20052;-73
2021/12/10 12:47:40;;;;;;;5.68;2.40;;;12.60;65.30;;;;;;4996251;28;20050;-73
2021/12/10 12:50:17;;;;;;;6.25;2.30;;;12.10;65.20;;;;;;4996124;28;20052;-71
2021/12/10 12:52:51;;;;;;;8.77;2.10;;;11.60;66.30;;;;;;4995958;28;20080;-72
2021/12/10 12:55:36;;;;;;;7.82;3.05;;;11.30;66.70;;;;;;4996019;28;20045;-73
2021/12/10 12:58:11;;;;;;;7.45;2.00;;;11.00;67.70;;;;;;4996063;28;20042;-73
2021/12/10 13:00:57;;;;;;;7.55;2.30;;;10.90;68.50;;;;;;4996202;28;20046;-73
2021/12/10 13:03:41;;;;;;;5.82;2.50;;;10.80;68.30;;;;;;4979678;28;20486;-73
2021/12/10 13:06:24;;;;;;;8.70;2.20;;;10.80;67.40;;;;;;4996195;28;20449;-72
2021/12/10 13:08:57;;;;;;;;;;;10.80;69.00;;;;;;4996340;28;20053;-73
2021/12/10 13:11:29;;;;;;;8.27;2.42;;;10.80;68.50;;;;;;4995710;28;19952;-73
2021/12/10 13:14:15;;;;;;;6.78;2.83;;;10.90;69.50;;;;;;4995312;28;20050;-73